Terminal Aerodrome Forecast
Issued by NWS

Home | Current Version | Previous Version | Text Only | Print | Product List | Glossary On
Versions: 1 2 3 4 5 6 7 8 9 10 11 12 13 14 15 16 17 18 19 20 21 22 23 24 25 26 27 28
000
FTUS41 KPBZ 301746
TAFAGC
TAF
KAGC 301746Z 3018/3118 02004KT 6SM -SHRA BKN005 OVC040
     FM301900 03005KT P6SM BKN040
     FM302300 VRB03KT P6SM VCTS BKN040CB
     FM310100 VRB02KT P6SM SCT120
     FM310800 19003KT 3SM BR SCT015
     FM311300 21004KT P6SM SCT030=

USA.gov is the U.S. government's official web portal to all federal, state and local government web resources and services.